createdAt,value
2024-03-01T00:00:27.505Z,33.50
2024-03-01T00:02:55.178Z,35.23
2024-03-01T00:05:23.901Z,31.77
2024-03-01T00:07:51.618Z,30.30
2024-03-01T00:10:19.401Z,31.90
2024-03-01T00:12:47.319Z,34.13
2024-03-01T00:15:16.468Z,32.43
2024-03-01T00:17:44.322Z,30.77
2024-03-01T00:20:13.558Z,32.83
2024-03-01T00:22:41.378Z,34.10
2024-03-01T00:25:09.785Z,33.83
2024-03-01T00:27:37.759Z,30.08
2024-03-01T00:30:06.309Z,30.87
2024-03-01T00:32:35.930Z,33.70
2024-03-01T00:35:03.805Z,34.17
2024-03-01T00:37:31.597Z,32.97
2024-03-01T00:39:59.380Z,33.97
2024-03-01T00:42:27.122Z,36.23
2024-03-01T00:44:54.826Z,35.45
2024-03-01T00:47:22.530Z,32.05
2024-03-01T00:49:51.959Z,35.22
2024-03-01T00:52:19.763Z,37.13
2024-03-01T00:54:50.343Z,36.27
2024-03-01T00:57:18.072Z,37.60
2024-03-01T00:59:45.802Z,35.03
2024-03-01T01:02:13.577Z,35.78
2024-03-01T01:04:41.329Z,31.57
2024-03-01T01:07:10.416Z,34.77
2024-03-01T01:09:39.853Z,33.55
2024-03-01T01:12:07.987Z,36.08
2024-03-01T01:14:38.769Z,34.22
2024-03-01T01:17:06.594Z,35.03
2024-03-01T01:19:42.127Z,32.60
2024-03-01T01:22:11.534Z,34.90
2024-03-01T01:24:39.348Z,33.50
2024-03-01T01:27:07.396Z,31.40
2024-03-01T01:29:37.398Z,31.53
2024-03-01T01:32:05.366Z,29.67
2024-03-01T01:34:35.033Z,29.93
2024-03-01T01:37:04.748Z,34.00
2024-03-01T01:39:34.578Z,29.50
2024-03-01T01:42:02.420Z,30.58
2024-03-01T01:44:30.579Z,31.52
2024-03-01T01:46:58.444Z,28.73
2024-03-01T01:49:29.344Z,30.85
2024-03-01T01:51:58.554Z,29.48
2024-03-01T01:54:26.965Z,30.43
2024-03-01T01:56:56.564Z,25.35
2024-03-01T01:59:24.667Z,28.38
2024-03-01T02:01:53.146Z,28.73
2024-03-01T02:04:21.392Z,29.52
2024-03-01T02:06:50.600Z,27.63
2024-03-01T02:09:20.171Z,27.15
2024-03-01T02:11:49.240Z,24.73
2024-03-01T02:14:18.455Z,25.30
2024-03-01T02:16:48.389Z,20.88
2024-03-01T02:19:17.472Z,24.55
2024-03-01T02:21:55.030Z,21.88
2024-03-01T02:24:25.163Z,21.20
2024-03-01T02:26:57.160Z,20.17
2024-03-01T02:29:25.794Z,20.80
2024-03-01T02:31:53.505Z,21.52
2024-03-01T02:34:21.532Z,22.27
2024-03-01T02:36:49.392Z,22.17
2024-03-01T02:39:19.676Z,19.30
2024-03-01T02:41:49.778Z,21.45
2024-03-01T02:44:17.618Z,19.80
2024-03-01T02:46:45.381Z,19.30
2024-03-01T02:49:13.162Z,20.92
2024-03-01T02:51:41.667Z,17.88
2024-03-01T02:54:09.365Z,18.30
2024-03-01T02:56:37.085Z,20.57
2024-03-01T02:59:06.196Z,20.17
2024-03-01T03:01:33.993Z,21.63
2024-03-01T03:04:01.764Z,20.87
2024-03-01T03:06:29.442Z,23.38
2024-03-01T03:08:57.107Z,22.35
2024-03-01T03:11:24.869Z,23.20
2024-03-01T03:13:52.565Z,22.83
2024-03-01T03:16:22.341Z,22.85
2024-03-01T03:18:50.164Z,21.95
2024-03-01T03:21:17.951Z,21.17
2024-03-01T03:23:46.493Z,24.83
2024-03-01T03:26:14.204Z,19.85
2024-03-01T03:28:41.881Z,15.25
2024-03-01T03:31:09.662Z,9.77
2024-03-01T03:33:39.084Z,5.87
2024-03-01T03:36:10.653Z,9.17
2024-03-01T03:38:38.317Z,7.83
2024-03-01T03:41:06.384Z,5.03
2024-03-01T03:43:34.152Z,9.67
2024-03-01T03:46:02.031Z,5.37
2024-03-01T03:48:29.680Z,2.70
2024-03-01T03:50:58.718Z,11.33
2024-03-01T03:53:26.896Z,5.03
2024-03-01T03:55:54.863Z,7.73
2024-03-01T03:58:22.681Z,7.23
2024-03-01T04:24:10.566Z,8.40
2024-03-01T04:26:38.395Z,6.97
2024-03-01T04:29:07.204Z,12.23
2024-03-01T04:31:37.102Z,7.00
2024-03-01T04:34:07.610Z,8.97
2024-03-01T04:36:35.662Z,7.87
2024-03-01T04:39:07.127Z,10.37
2024-03-01T04:41:36.385Z,7.90
2024-03-01T04:44:05.156Z,11.00
2024-03-01T04:46:33.126Z,10.90
2024-03-01T04:49:00.934Z,9.63
2024-03-01T04:51:29.943Z,7.70
2024-03-01T04:53:57.671Z,9.33
2024-03-01T04:56:25.345Z,9.67
2024-03-01T04:58:54.458Z,8.43
2024-03-01T05:01:24.111Z,7.17
2024-03-01T05:03:52.062Z,9.13
2024-03-01T05:06:20.076Z,8.00
2024-03-01T05:08:48.223Z,6.77
2024-03-01T05:11:18.627Z,12.40
2024-03-01T05:13:46.614Z,7.10
2024-03-01T05:16:20.070Z,6.73
2024-03-01T05:18:47.946Z,13.73
2024-03-01T05:21:15.655Z,9.70
2024-03-01T05:23:44.079Z,5.30
2024-03-01T05:26:11.877Z,8.27
2024-03-01T05:28:39.990Z,11.00
2024-03-01T05:31:18.777Z,11.87
2024-03-01T05:33:52.513Z,9.53
2024-03-01T05:36:20.558Z,7.80
2024-03-01T05:38:48.236Z,8.13
2024-03-01T05:41:15.938Z,12.27
2024-03-01T05:43:43.662Z,8.47
2024-03-01T05:46:17.100Z,15.80
2024-03-01T05:48:46.669Z,16.30
2024-03-01T05:51:15.664Z,13.13
2024-03-01T05:53:43.988Z,12.67
2024-03-01T05:56:19.663Z,13.37
2024-03-01T05:58:48.361Z,9.80
2024-03-01T06:01:18.142Z,12.27
2024-03-01T06:03:46.375Z,13.00
2024-03-01T06:06:16.662Z,10.83
2024-03-01T06:08:44.798Z,13.03
2024-03-01T06:11:12.670Z,15.60
2024-03-01T06:13:40.809Z,21.07
2024-03-01T06:16:09.409Z,19.03
2024-03-01T06:18:37.266Z,16.47
2024-03-01T06:21:05.481Z,16.77
2024-03-01T06:23:34.590Z,20.47
2024-03-01T06:26:02.520Z,16.10
2024-03-01T06:28:30.334Z,11.70
2024-03-01T06:30:58.166Z,15.97
2024-03-01T06:33:25.918Z,21.10
2024-03-01T06:35:57.262Z,14.27
2024-03-01T06:38:25.116Z,12.30
2024-03-01T06:40:54.494Z,12.30
2024-03-01T06:43:22.363Z,14.77
2024-03-01T06:45:50.080Z,13.80
2024-03-01T06:48:21.289Z,17.93
2024-03-01T06:50:50.234Z,21.50
2024-03-01T06:53:18.307Z,19.93
2024-03-01T06:55:46.075Z,10.23
2024-03-01T06:58:15.221Z,17.93
2024-03-01T07:00:47.840Z,14.67
2024-03-01T07:03:15.653Z,11.63
2024-03-01T07:05:43.619Z,9.63
2024-03-01T07:08:11.289Z,14.77
2024-03-01T07:10:39.346Z,7.73
2024-03-01T07:13:07.163Z,8.43
2024-03-01T07:15:38.222Z,9.80
2024-03-01T07:18:06.508Z,12.37
2024-03-01T07:20:34.371Z,11.93
2024-03-01T07:23:02.079Z,13.27
2024-03-01T07:25:29.849Z,17.10
2024-03-01T07:27:57.725Z,12.63
2024-03-01T07:30:25.482Z,14.23
2024-03-01T07:32:54.764Z,13.47
2024-03-01T07:35:22.552Z,18.10
2024-03-01T07:37:50.590Z,23.50
2024-03-01T07:40:18.425Z,14.97
2024-03-01T07:42:46.481Z,11.23
2024-03-01T07:45:14.646Z,15.40
2024-03-01T07:47:44.287Z,18.73
2024-03-01T07:50:13.783Z,15.27
2024-03-01T07:52:41.653Z,12.43
2024-03-01T07:55:09.492Z,14.30
2024-03-01T07:57:39.383Z,15.57
2024-03-01T08:00:09.294Z,13.93
2024-03-01T08:02:37.184Z,17.43
2024-03-01T08:05:07.538Z,15.90
2024-03-01T08:07:36.583Z,13.63
2024-03-01T08:10:05.963Z,15.17
2024-03-01T08:12:33.746Z,15.50
2024-03-01T08:15:08.379Z,12.57
2024-03-01T08:17:36.182Z,15.30
2024-03-01T08:20:12.478Z,14.33
2024-03-01T08:22:41.586Z,16.50
2024-03-01T08:25:12.144Z,14.77
2024-03-01T08:27:41.387Z,17.30
2024-03-01T08:30:36.512Z,15.63
2024-03-01T08:33:04.572Z,14.77
2024-03-01T08:35:32.545Z,18.53
2024-03-01T08:38:02.231Z,18.20
2024-03-01T08:40:50.467Z,25.00
2024-03-01T08:43:18.345Z,21.87
2024-03-01T08:45:46.592Z,22.97
2024-03-01T08:48:20.021Z,20.30
2024-03-01T08:50:50.738Z,16.30
2024-03-01T08:54:01.577Z,20.77
2024-03-01T08:56:35.739Z,13.73
2024-03-01T08:59:06.761Z,13.90
2024-03-01T09:01:47.091Z,15.13
2024-03-01T09:04:28.688Z,16.63
2024-03-01T09:07:09.650Z,13.97
2024-03-01T09:09:38.497Z,17.07
2024-03-01T09:12:10.821Z,15.87
2024-03-01T09:14:38.562Z,12.87
2024-03-01T09:17:07.633Z,11.73
2024-03-01T09:19:40.708Z,13.87
2024-03-01T09:22:08.665Z,8.90
2024-03-01T09:24:39.631Z,16.27
2024-03-01T09:27:22.311Z,17.93
2024-03-01T09:29:50.071Z,13.53
2024-03-01T09:32:18.177Z,19.53
2024-03-01T09:34:47.120Z,13.40
2024-03-01T09:37:17.446Z,16.87
2024-03-01T09:39:46.987Z,20.77
2024-03-01T09:42:38.870Z,17.73
2024-03-01T09:45:41.684Z,19.83
2024-03-01T09:48:16.560Z,19.33
2024-03-01T09:51:03.121Z,23.90
2024-03-01T09:53:44.331Z,23.43
2024-03-01T09:56:19.377Z,21.03
2024-03-01T09:58:57.878Z,24.07
2024-03-01T10:01:31.268Z,25.50
2024-03-01T10:04:12.631Z,22.27
2024-03-01T10:07:02.349Z,24.90
2024-03-01T10:09:50.128Z,20.83
2024-03-01T10:12:28.852Z,20.80
2024-03-01T10:15:02.873Z,23.87
2024-03-01T10:17:43.325Z,20.25
2024-03-01T10:20:26.444Z,20.08
2024-03-01T10:23:08.479Z,25.07
2024-03-01T10:25:53.035Z,18.67
2024-03-01T10:28:34.531Z,22.23
2024-03-01T10:31:12.737Z,21.48
2024-03-01T10:33:56.637Z,21.60
2024-03-01T10:36:36.073Z,20.00
2024-03-01T10:39:08.815Z,21.17
2024-03-01T10:41:49.599Z,24.93
2024-03-01T10:44:22.744Z,19.57
2024-03-01T10:46:57.572Z,17.07
2024-03-01T10:49:32.257Z,20.67
2024-03-01T10:52:07.516Z,17.60
2024-03-01T10:54:37.682Z,17.92
2024-03-01T10:57:09.560Z,18.33
2024-03-01T10:59:49.124Z,17.97
2024-03-01T11:02:22.795Z,14.85
2024-03-01T11:04:57.803Z,15.80
2024-03-01T11:07:33.765Z,17.85
2024-03-01T11:10:04.864Z,15.47
2024-03-01T11:12:37.618Z,15.00
2024-03-01T11:15:14.717Z,12.73
2024-03-01T11:17:47.487Z,12.75
2024-03-01T11:20:22.194Z,22.00
2024-03-01T11:23:01.609Z,17.75
2024-03-01T11:25:41.025Z,12.63
2024-03-01T11:28:12.616Z,19.13
2024-03-01T11:30:46.417Z,16.40
2024-03-01T11:33:17.851Z,16.47
2024-03-01T11:35:51.012Z,15.18
2024-03-01T11:38:29.910Z,15.60
2024-03-01T11:41:21.142Z,16.00
2024-03-01T11:44:03.642Z,13.48
2024-03-01T11:46:57.693Z,9.48
2024-03-01T11:49:43.352Z,13.10
2024-03-01T11:52:27.205Z,13.70
2024-03-01T11:55:07.432Z,11.63
2024-03-01T11:57:39.476Z,9.55
2024-03-01T12:00:37.145Z,11.18
2024-03-01T12:03:49.477Z,11.23
2024-03-01T12:06:29.264Z,7.57
2024-03-01T12:09:09.136Z,10.23
2024-03-01T12:11:51.554Z,8.00
2024-03-01T12:14:29.763Z,12.48
2024-03-01T12:17:05.105Z,15.60
2024-03-01T12:19:41.876Z,10.95
2024-03-01T12:22:32.337Z,19.02
2024-03-01T12:25:01.799Z,9.52
2024-03-01T12:27:40.940Z,12.73
2024-03-01T12:30:18.667Z,10.60
2024-03-01T12:32:57.712Z,8.35
2024-03-01T12:35:36.274Z,7.05
2024-03-01T12:38:17.712Z,9.25
2024-03-01T12:40:57.843Z,10.00
2024-03-01T12:43:45.679Z,7.73
2024-03-01T12:46:33.278Z,8.90
2024-03-01T12:49:17.245Z,10.57
2024-03-01T12:51:58.285Z,5.13
2024-03-01T12:54:39.766Z,8.07
2024-03-01T12:57:21.038Z,9.80
2024-03-01T12:59:55.833Z,7.80
2024-03-01T13:02:50.910Z,12.37
2024-03-01T13:05:26.071Z,9.50
2024-03-01T13:07:57.170Z,5.07
2024-03-01T13:10:27.956Z,9.73
2024-03-01T13:12:59.291Z,7.50
2024-03-01T13:15:32.954Z,7.00
2024-03-01T13:18:09.198Z,5.68
2024-03-01T13:20:47.710Z,8.20
2024-03-01T13:23:30.927Z,7.30
2024-03-01T13:26:15.410Z,5.53
2024-03-01T13:28:52.752Z,9.67
2024-03-01T13:31:27.707Z,6.67
2024-03-01T13:34:00.234Z,9.17
2024-03-01T13:36:31.759Z,10.17
2024-03-01T13:39:12.656Z,5.73
2024-03-01T13:41:50.109Z,7.90
2024-03-01T13:44:25.054Z,5.03
2024-03-01T13:47:02.195Z,6.07
2024-03-01T13:49:38.212Z,8.77
2024-03-01T13:52:08.862Z,6.73
2024-03-01T13:54:37.298Z,9.23
2024-03-01T13:57:12.634Z,10.20
2024-03-01T13:59:40.507Z,6.33
2024-03-01T14:02:09.045Z,8.57
2024-03-01T14:04:37.170Z,7.10
2024-03-01T14:07:05.799Z,6.13
2024-03-01T14:09:34.051Z,5.17
2024-03-01T14:12:01.759Z,6.53
2024-03-01T14:14:30.764Z,4.20
2024-03-01T14:17:00.690Z,5.40
2024-03-01T14:19:28.419Z,10.02
2024-03-01T14:21:56.223Z,4.67
2024-03-01T14:24:23.981Z,6.47
2024-03-01T14:26:51.837Z,3.70
2024-03-01T14:29:19.614Z,7.80
2024-03-01T14:32:07.415Z,8.93
2024-03-01T14:34:39.701Z,5.00
2024-03-01T14:37:10.996Z,3.83
2024-03-01T14:39:40.580Z,3.33
2024-03-01T14:42:18.358Z,5.83
2024-03-01T14:44:46.552Z,6.23
2024-03-01T14:47:15.978Z,6.57
2024-03-01T14:49:44.496Z,4.77
2024-03-01T14:52:12.860Z,5.05
2024-03-01T14:54:41.012Z,3.67
2024-03-01T14:57:08.845Z,6.15
2024-03-01T14:59:36.651Z,5.13
2024-03-01T15:02:05.369Z,5.88
2024-03-01T15:04:34.980Z,6.17
2024-03-01T15:07:04.938Z,4.90
2024-03-01T15:09:32.724Z,3.83
2024-03-01T15:12:08.095Z,6.27
2024-03-01T15:14:35.799Z,8.95
2024-03-01T15:17:09.174Z,5.25
2024-03-01T15:19:42.750Z,7.60
2024-03-01T15:22:13.741Z,5.63
2024-03-01T15:24:41.674Z,3.28
2024-03-01T15:27:09.570Z,7.85
2024-03-01T15:29:37.374Z,9.52
2024-03-01T15:32:05.804Z,6.03
2024-03-01T15:34:33.593Z,4.18
2024-03-01T15:37:04.449Z,7.40
2024-03-01T15:39:32.293Z,9.00
2024-03-01T15:42:00.093Z,5.68
2024-03-01T15:44:27.871Z,5.70
2024-03-01T15:46:55.796Z,7.65
2024-03-01T15:49:23.940Z,4.70
2024-03-01T15:51:51.886Z,8.90
2024-03-01T15:54:20.982Z,7.03
2024-03-01T15:56:48.735Z,8.43
2024-03-01T15:59:17.120Z,6.85
2024-03-01T16:01:45.187Z,3.83
2024-03-01T16:04:14.153Z,7.45
2024-03-01T16:06:42.215Z,6.43
2024-03-01T16:09:10.507Z,10.20
2024-03-01T16:11:43.645Z,7.75
2024-03-01T16:14:13.119Z,7.20
2024-03-01T16:16:40.964Z,5.60
2024-03-01T16:19:09.243Z,5.32
2024-03-01T16:21:37.303Z,7.93
2024-03-01T16:24:10.292Z,5.50
2024-03-01T16:26:38.513Z,4.97
2024-03-01T16:29:08.023Z,4.60
2024-03-01T16:31:36.299Z,4.32
2024-03-01T16:34:05.473Z,3.00
2024-03-01T16:36:33.372Z,3.53
2024-03-01T16:39:01.490Z,4.17
2024-03-01T16:41:40.359Z,3.70
2024-03-01T16:44:29.896Z,8.30
2024-03-01T16:46:57.993Z,2.67
2024-03-01T16:49:38.193Z,2.63
2024-03-01T16:52:08.734Z,3.20
2024-03-01T16:54:37.021Z,2.75
2024-03-01T16:57:09.965Z,3.07
2024-03-01T16:59:40.058Z,5.17
2024-03-01T17:02:21.940Z,5.63
2024-03-01T17:04:50.390Z,3.70
2024-03-01T17:07:23.756Z,2.70
2024-03-01T17:09:52.836Z,4.40
2024-03-01T17:12:21.093Z,4.70
2024-03-01T17:14:50.151Z,5.03
2024-03-01T17:17:18.269Z,4.80
2024-03-01T17:19:48.842Z,6.13
2024-03-01T17:22:18.081Z,5.93
2024-03-01T17:24:47.538Z,5.80
2024-03-01T17:27:15.504Z,6.10
2024-03-01T17:29:44.344Z,5.60
2024-03-01T17:32:13.571Z,5.30
2024-03-01T17:34:41.350Z,4.53
2024-03-01T17:37:09.255Z,8.17
2024-03-01T17:39:37.209Z,5.47
2024-03-01T17:42:05.646Z,3.80
2024-03-01T17:44:33.365Z,3.83
2024-03-01T17:47:01.127Z,5.63
2024-03-01T17:49:30.347Z,6.07
2024-03-01T17:51:58.676Z,4.50
2024-03-01T17:54:26.380Z,4.20
2024-03-01T17:56:54.103Z,6.00
2024-03-01T17:59:22.957Z,4.13
2024-03-01T18:01:50.728Z,4.47
2024-03-01T18:04:22.583Z,5.33
2024-03-01T18:06:51.738Z,6.70
2024-03-01T18:09:19.510Z,8.53
2024-03-01T18:11:47.355Z,8.10
2024-03-01T18:14:15.135Z,7.00
2024-03-01T18:16:43.184Z,5.77
2024-03-01T18:19:14.039Z,6.77
2024-03-01T18:21:42.147Z,2.00
2024-03-01T18:24:13.840Z,4.40
2024-03-01T18:26:43.116Z,2.07
2024-03-01T18:29:10.937Z,5.97
2024-03-01T18:31:38.896Z,4.70
2024-03-01T18:34:06.650Z,4.73
2024-03-01T18:36:34.363Z,4.17
2024-03-01T18:39:02.416Z,5.03
2024-03-01T18:41:33.734Z,5.70
2024-03-01T18:44:02.881Z,4.00
2024-03-01T18:46:31.095Z,3.80
2024-03-01T18:48:59.929Z,2.40
2024-03-01T18:51:27.761Z,4.67
2024-03-01T18:53:55.442Z,6.23
2024-03-01T18:56:23.267Z,6.47
2024-03-01T18:58:52.335Z,8.30
2024-03-01T19:01:20.248Z,5.33
2024-03-01T19:03:48.276Z,4.87
2024-03-01T19:06:16.041Z,3.53
2024-03-01T19:08:43.726Z,4.63
2024-03-01T19:11:11.558Z,5.43
2024-03-01T19:13:39.504Z,2.93
2024-03-01T19:16:08.800Z,5.70
2024-03-01T19:18:36.525Z,6.57
2024-03-01T19:21:04.573Z,5.20
2024-03-01T19:23:33.351Z,6.17
2024-03-01T19:26:03.786Z,5.20
2024-03-01T19:28:32.706Z,4.87
2024-03-01T19:31:01.977Z,8.13
2024-03-01T19:33:31.093Z,4.87
2024-03-01T19:36:00.413Z,5.50
2024-03-01T19:38:28.198Z,7.00
2024-03-01T19:40:56.276Z,6.97
2024-03-01T19:43:24.325Z,7.10
2024-03-01T19:45:52.576Z,5.13
2024-03-01T19:48:22.343Z,4.30
2024-03-01T19:50:51.777Z,5.87
2024-03-01T19:53:19.692Z,7.40
2024-03-01T19:55:47.459Z,6.33
2024-03-01T19:58:15.217Z,8.83
2024-03-01T20:00:42.977Z,8.33
2024-03-01T20:03:10.666Z,7.47
2024-03-01T20:05:38.832Z,7.77
2024-03-01T20:08:08.323Z,8.83
2024-03-01T20:10:36.082Z,7.50
2024-03-01T20:13:04.053Z,9.80
2024-03-01T20:15:33.546Z,8.77
2024-03-01T20:18:01.346Z,10.03
2024-03-01T20:20:29.080Z,11.07
2024-03-01T20:22:56.810Z,10.33
2024-03-01T20:25:26.477Z,10.93
2024-03-01T20:27:54.332Z,8.47
2024-03-01T20:30:22.164Z,11.47
2024-03-01T20:32:51.150Z,19.70
2024-03-01T20:35:19.073Z,17.57
2024-03-01T20:37:47.077Z,18.50
2024-03-01T20:40:15.273Z,16.43
2024-03-01T20:42:44.394Z,22.93
2024-03-01T20:45:12.143Z,18.93
2024-03-01T20:47:39.918Z,19.30
2024-03-01T20:50:08.896Z,21.57
2024-03-01T20:52:36.975Z,20.10
2024-03-01T20:55:06.831Z,16.33
2024-03-01T20:57:35.011Z,16.67
2024-03-01T21:00:04.327Z,20.70
2024-03-01T21:02:32.005Z,15.33
2024-03-01T21:04:59.713Z,17.70
2024-03-01T21:07:29.060Z,12.60
2024-03-01T21:09:59.788Z,13.03
2024-03-01T21:12:27.476Z,10.80
2024-03-01T21:14:55.214Z,10.67
2024-03-01T21:17:24.615Z,10.30
2024-03-01T21:19:52.979Z,10.47
2024-03-01T21:24:52.401Z,10.17
2024-03-01T21:27:20.124Z,11.60
2024-03-01T21:29:47.811Z,6.13
2024-03-01T21:32:21.766Z,5.07
2024-03-01T21:34:54.134Z,5.37
2024-03-01T21:37:21.835Z,4.67
2024-03-01T21:39:49.584Z,4.93
2024-03-01T21:42:17.663Z,5.20
2024-03-01T21:44:45.762Z,12.30
2024-03-01T21:47:13.518Z,9.17
2024-03-01T21:49:41.468Z,4.63
2024-03-01T21:52:11.298Z,6.00
2024-03-01T21:54:40.142Z,7.53
2024-03-01T21:57:07.914Z,6.87
2024-03-01T21:59:37.418Z,7.67
2024-03-01T22:02:07.528Z,4.37
2024-03-01T22:04:35.569Z,8.80
2024-03-01T22:07:03.347Z,6.70
2024-03-01T22:09:32.521Z,5.33
2024-03-01T22:12:00.273Z,7.57
2024-03-01T22:14:27.980Z,9.73
2024-03-01T22:16:56.408Z,9.00
2024-03-01T22:19:24.437Z,8.60
2024-03-01T22:21:52.407Z,6.50
2024-03-01T22:24:20.318Z,5.43
2024-03-01T22:26:49.554Z,5.07
2024-03-01T22:29:17.275Z,5.67
2024-03-01T22:31:45.502Z,6.07
2024-03-01T22:34:14.049Z,4.80
2024-03-01T22:36:42.105Z,6.00
2024-03-01T22:39:10.569Z,5.27
2024-03-01T22:41:38.280Z,5.63
2024-03-01T22:44:07.399Z,5.97
2024-03-01T22:46:35.210Z,7.43
2024-03-01T22:49:03.190Z,4.23
2024-03-01T22:51:32.928Z,5.40
2024-03-01T22:54:00.963Z,6.47
2024-03-01T22:56:33.460Z,3.03
2024-03-01T22:59:01.519Z,5.53
2024-03-01T23:01:33.312Z,4.40
2024-03-01T23:04:02.099Z,5.40
2024-03-01T23:06:30.100Z,3.70
2024-03-01T23:08:58.964Z,7.17
2024-03-01T23:11:39.064Z,3.70
2024-03-01T23:14:10.564Z,5.07
2024-03-01T23:16:39.597Z,7.73
2024-03-01T23:19:07.398Z,6.17
2024-03-01T23:21:35.147Z,5.53
2024-03-01T23:24:02.875Z,4.10
2024-03-01T23:26:31.155Z,4.47
2024-03-01T23:28:58.883Z,5.63
2024-03-01T23:31:26.620Z,3.70
2024-03-01T23:33:55.769Z,5.67
2024-03-01T23:36:23.602Z,7.27
2024-03-01T23:38:51.359Z,6.13
2024-03-01T23:41:19.127Z,4.97
2024-03-01T23:43:46.801Z,4.47
2024-03-01T23:46:15.449Z,4.30
2024-03-01T23:48:43.729Z,8.13
2024-03-01T23:51:15.040Z,3.90
2024-03-01T23:53:43.118Z,5.73
2024-03-01T23:56:10.782Z,5.57
2024-03-01T23:58:40.374Z,5.23
